createdAt,value
2018-04-02T00:01:19.187Z,13.70
2018-04-02T00:03:52.724Z,13.10
2018-04-02T00:06:26.157Z,14.60
2018-04-02T00:09:01.081Z,12.27
2018-04-02T00:11:35.277Z,13.17
2018-04-02T00:14:10.178Z,13.57
2018-04-02T00:16:43.875Z,14.40
2018-04-02T00:19:19.342Z,13.70
2018-04-02T00:21:53.286Z,12.90
2018-04-02T00:24:27.057Z,13.60
2018-04-02T00:27:00.851Z,13.50
2018-04-02T00:29:34.728Z,14.67
2018-04-02T00:32:08.297Z,13.43
2018-04-02T00:34:41.760Z,13.40
2018-04-02T00:37:15.649Z,15.07
2018-04-02T00:39:49.762Z,15.33
2018-04-02T00:42:24.181Z,13.93
2018-04-02T00:45:07.593Z,15.83
2018-04-02T00:47:42.378Z,14.37
2018-04-02T00:50:16.034Z,15.17
2018-04-02T00:52:50.403Z,15.87
2018-04-02T00:55:30.570Z,15.47
2018-04-02T00:58:04.583Z,16.93
2018-04-02T01:00:38.351Z,18.87
2018-04-02T01:03:12.063Z,20.87
2018-04-02T01:05:46.003Z,17.67
2018-04-02T01:08:19.771Z,19.10
2018-04-02T01:10:53.029Z,18.17
2018-04-02T01:13:27.068Z,19.17
2018-04-02T01:16:00.779Z,18.57
2018-04-02T01:18:34.566Z,21.17
2018-04-02T01:21:08.564Z,19.67
2018-04-02T01:23:42.406Z,19.33
2018-04-02T01:26:15.640Z,17.33
2018-04-02T01:28:51.129Z,17.93
2018-04-02T01:31:24.792Z,16.90
2018-04-02T01:33:58.286Z,17.10
2018-04-02T01:36:32.557Z,18.17
2018-04-02T01:39:06.788Z,16.10
2018-04-02T01:41:40.403Z,18.10
2018-04-02T01:44:14.166Z,17.83
2018-04-02T01:46:47.933Z,17.73
2018-04-02T01:49:22.016Z,18.43
2018-04-02T01:51:58.121Z,19.83
2018-04-02T01:54:31.732Z,18.57
2018-04-02T01:57:08.117Z,18.03
2018-04-02T01:59:44.282Z,19.13
2018-04-02T02:02:17.951Z,18.50
2018-04-02T02:04:53.606Z,17.97
2018-04-02T02:07:28.621Z,19.00
2018-04-02T02:10:02.976Z,19.30
2018-04-02T02:12:36.624Z,18.77
2018-04-02T02:15:10.615Z,17.10
2018-04-02T02:17:44.459Z,19.37
2018-04-02T02:20:18.517Z,21.73
2018-04-02T02:22:52.460Z,18.13
2018-04-02T02:25:27.318Z,16.77
2018-04-02T02:28:03.428Z,18.30
2018-04-02T02:30:37.174Z,17.10
2018-04-02T02:33:11.361Z,15.33
2018-04-02T02:35:44.631Z,15.63
2018-04-02T02:38:18.289Z,16.57
2018-04-02T02:40:52.429Z,17.80
2018-04-02T02:43:26.345Z,16.20
2018-04-02T02:46:01.396Z,16.93
2018-04-02T02:48:35.242Z,15.53
2018-04-02T02:51:09.729Z,15.83
2018-04-02T02:53:43.306Z,16.33
2018-04-02T02:56:17.074Z,17.07
2018-04-02T02:58:51.638Z,17.47
2018-04-02T03:01:25.244Z,17.57
2018-04-02T03:03:59.232Z,17.17
2018-04-02T03:06:32.454Z,16.47
2018-04-02T03:09:07.330Z,17.03
2018-04-02T03:11:40.826Z,19.37
2018-04-02T03:14:14.288Z,19.03
2018-04-02T03:16:47.892Z,17.77
2018-04-02T03:19:21.339Z,17.87
2018-04-02T03:21:54.666Z,15.97
2018-04-02T03:24:28.303Z,15.43
2018-04-02T03:27:01.915Z,16.10
2018-04-02T03:29:35.225Z,15.87
2018-04-02T03:32:08.870Z,17.13
2018-04-02T03:34:42.532Z,18.07
2018-04-02T03:37:16.434Z,17.93
2018-04-02T03:39:50.672Z,16.47
2018-04-02T03:42:24.186Z,16.83
2018-04-02T03:44:57.542Z,17.10
2018-04-02T03:47:31.070Z,17.90
2018-04-02T03:50:06.266Z,15.97
2018-04-02T03:52:39.611Z,15.30
2018-04-02T03:55:13.488Z,15.87
2018-04-02T03:57:46.849Z,15.00
2018-04-02T04:00:20.414Z,16.90
2018-04-02T04:02:54.116Z,17.43
2018-04-02T04:05:27.766Z,20.50
2018-04-02T04:08:01.352Z,17.97
2018-04-02T04:10:35.311Z,17.77
2018-04-02T04:13:09.001Z,15.43
2018-04-02T04:15:42.773Z,17.10
2018-04-02T04:18:16.395Z,16.87
2018-04-02T04:20:50.151Z,16.10
2018-04-02T04:23:24.033Z,15.40
2018-04-02T04:25:58.253Z,15.03
2018-04-02T04:28:31.668Z,16.67
2018-04-02T04:31:05.570Z,16.40
2018-04-02T04:33:39.206Z,15.17
2018-04-02T04:36:12.681Z,16.37
2018-04-02T04:38:46.309Z,13.93
2018-04-02T04:41:20.344Z,15.77
2018-04-02T04:43:53.780Z,15.23
2018-04-02T04:46:27.499Z,15.60
2018-04-02T04:49:01.283Z,14.33
2018-04-02T04:51:34.629Z,14.43
2018-04-02T04:54:08.612Z,15.03
2018-04-02T04:56:42.319Z,16.97
2018-04-02T04:59:15.876Z,16.10
2018-04-02T05:01:49.671Z,15.90
2018-04-02T05:04:23.179Z,17.07
2018-04-02T05:06:56.712Z,15.27
2018-04-02T05:09:30.612Z,17.10
2018-04-02T05:12:04.293Z,15.70
2018-04-02T05:14:37.642Z,16.13
2018-04-02T05:17:11.217Z,18.60
2018-04-02T05:19:44.646Z,15.07
2018-04-02T05:22:17.971Z,17.13
2018-04-02T05:24:51.680Z,16.37
2018-04-02T05:27:25.385Z,19.27
2018-04-02T05:29:59.264Z,16.13
2018-04-02T05:32:33.222Z,18.07
2018-04-02T05:35:06.616Z,17.87
2018-04-02T05:37:40.138Z,18.37
2018-04-02T05:40:13.867Z,16.30
2018-04-02T05:42:48.723Z,16.50
2018-04-02T05:45:22.442Z,16.17
2018-04-02T05:47:56.143Z,16.60
2018-04-02T05:50:29.916Z,15.20
2018-04-02T05:53:03.463Z,14.77
2018-04-02T05:55:37.052Z,15.30
2018-04-02T05:58:10.606Z,17.33
2018-04-02T06:00:44.425Z,16.17
2018-04-02T06:03:18.199Z,18.00
2018-04-02T06:05:52.290Z,15.73
2018-04-02T06:08:26.107Z,15.33
2018-04-02T06:10:59.714Z,16.53
2018-04-02T06:13:33.710Z,16.60
2018-04-02T06:16:07.973Z,15.63
2018-04-02T06:18:41.762Z,16.40
2018-04-02T06:21:17.471Z,16.07
2018-04-02T06:23:55.994Z,16.17
2018-04-02T06:26:30.848Z,15.83
2018-04-02T06:29:05.034Z,17.93
2018-04-02T06:31:44.948Z,17.40
2018-04-02T06:34:19.511Z,16.20
2018-04-02T06:36:54.427Z,16.37
2018-04-02T06:39:27.926Z,17.03
2018-04-02T06:42:01.858Z,14.53
2018-04-02T06:44:35.399Z,14.60
2018-04-02T06:47:11.250Z,14.90
2018-04-02T06:49:46.758Z,17.63
2018-04-02T06:52:21.287Z,16.93
2018-04-02T06:54:54.767Z,15.43
2018-04-02T06:57:34.015Z,16.23
2018-04-02T07:00:16.109Z,18.87
2018-04-02T07:02:50.485Z,15.47
2018-04-02T07:05:24.752Z,16.73
2018-04-02T07:08:02.016Z,15.60
2018-04-02T07:10:35.848Z,16.90
2018-04-02T07:13:09.301Z,15.47
2018-04-02T07:15:42.898Z,17.37
2018-04-02T07:18:19.004Z,16.57
2018-04-02T07:20:52.945Z,16.13
2018-04-02T07:23:27.378Z,16.70
2018-04-02T07:26:01.029Z,17.40
2018-04-02T07:28:34.672Z,17.73
2018-04-02T07:31:09.559Z,17.73
2018-04-02T07:33:43.262Z,18.03
2018-04-02T07:36:16.735Z,18.00
2018-04-02T07:38:50.901Z,18.43
2018-04-02T07:41:25.450Z,18.07
2018-04-02T07:43:59.428Z,19.20
2018-04-02T07:46:33.520Z,19.10
2018-04-02T07:49:09.527Z,18.70
2018-04-02T07:51:43.128Z,19.00
2018-04-02T07:54:17.298Z,17.80
2018-04-02T07:56:51.407Z,17.80
2018-04-02T07:59:25.715Z,17.50
2018-04-02T08:01:59.796Z,18.47
2018-04-02T08:04:34.062Z,17.23
2018-04-02T08:07:09.005Z,18.27
2018-04-02T08:09:46.269Z,18.20
2018-04-02T08:12:19.887Z,15.77
2018-04-02T08:14:55.472Z,17.07
2018-04-02T08:17:29.025Z,19.93
2018-04-02T08:20:03.703Z,19.33
2018-04-02T08:22:39.256Z,17.00
2018-04-02T08:25:14.813Z,17.20
2018-04-02T08:27:48.860Z,16.57
2018-04-02T08:30:22.447Z,17.17
2018-04-02T08:32:56.857Z,17.80
2018-04-02T08:35:31.076Z,16.43
2018-04-02T08:38:04.754Z,17.70
2018-04-02T08:40:38.990Z,17.47
2018-04-02T08:43:15.906Z,17.20
2018-04-02T08:45:50.256Z,17.53
2018-04-02T08:48:23.684Z,17.40
2018-04-02T08:50:57.537Z,17.83
2018-04-02T08:53:31.697Z,18.70
2018-04-02T08:56:05.256Z,16.73
2018-04-02T08:58:40.640Z,17.07
2018-04-02T09:01:14.725Z,16.30
2018-04-02T09:03:49.812Z,16.10
2018-04-02T09:06:24.928Z,15.43
2018-04-02T09:09:02.501Z,15.53
2018-04-02T09:11:35.904Z,15.27
2018-04-02T09:14:09.580Z,14.37
2018-04-02T09:16:43.892Z,12.93
2018-04-02T09:19:21.659Z,13.30
2018-04-02T09:21:56.422Z,12.57
2018-04-02T09:24:30.483Z,13.97
2018-04-02T09:27:05.153Z,13.23
2018-04-02T09:29:40.469Z,13.93
2018-04-02T09:32:15.066Z,12.90
2018-04-02T09:34:56.985Z,12.33
2018-04-02T09:37:31.942Z,13.83
2018-04-02T09:40:15.284Z,13.10
2018-04-02T09:42:49.442Z,10.77
2018-04-02T09:45:23.044Z,11.17
2018-04-02T09:47:56.970Z,9.50
2018-04-02T09:50:30.701Z,9.67
2018-04-02T09:53:05.624Z,9.30
2018-04-02T09:55:39.400Z,8.70
2018-04-02T09:58:14.000Z,8.60
2018-04-02T10:00:56.540Z,9.37
2018-04-02T10:03:34.894Z,9.27
2018-04-02T10:06:09.212Z,8.27
2018-04-02T10:08:44.604Z,9.30
2018-04-02T10:11:18.837Z,8.47
2018-04-02T10:13:55.528Z,8.63
2018-04-02T10:16:33.971Z,9.37
2018-04-02T10:19:11.071Z,9.13
2018-04-02T10:21:49.416Z,8.97
2018-04-02T10:24:23.693Z,8.80
2018-04-02T10:26:57.816Z,7.97
2018-04-02T10:29:32.708Z,7.37
2018-04-02T10:32:06.714Z,7.60
2018-04-02T10:34:40.971Z,7.70
2018-04-02T10:37:14.952Z,7.77
2018-04-02T10:39:48.842Z,8.17
2018-04-02T10:42:28.109Z,7.70
2018-04-02T10:45:07.813Z,6.83
2018-04-02T10:47:51.912Z,6.63
2018-04-02T10:50:25.853Z,7.67
2018-04-02T10:53:04.965Z,7.63
2018-04-02T10:55:40.097Z,7.93
2018-04-02T10:58:14.661Z,8.53
2018-04-02T11:00:48.675Z,8.47
2018-04-02T11:03:22.077Z,7.30
2018-04-02T11:05:57.540Z,7.27
2018-04-02T11:08:33.399Z,8.40
2018-04-02T11:11:08.299Z,8.27
2018-04-02T11:13:41.881Z,7.90
2018-04-02T11:16:17.874Z,6.50
2018-04-02T11:18:51.436Z,7.20
2018-04-02T11:21:27.244Z,7.37
2018-04-02T11:24:02.075Z,8.03
2018-04-02T11:26:36.497Z,7.70
2018-04-02T11:29:14.915Z,7.77
2018-04-02T11:31:49.726Z,7.37
2018-04-02T11:34:27.544Z,7.33
2018-04-02T11:37:01.526Z,6.80
2018-04-02T11:39:35.027Z,7.13
2018-04-02T11:44:41.475Z,7.70
2018-04-02T11:47:30.622Z,7.87
2018-04-02T11:50:10.561Z,7.47
2018-04-02T11:52:44.854Z,7.40
2018-04-02T11:55:19.201Z,7.60
2018-04-02T11:57:53.017Z,7.33
2018-04-02T12:00:26.659Z,8.60
2018-04-02T12:03:05.096Z,7.73
2018-04-02T12:05:38.754Z,8.80
2018-04-02T12:08:17.518Z,7.77
2018-04-02T12:10:52.411Z,7.70
2018-04-02T12:13:26.973Z,7.53
2018-04-02T12:16:00.937Z,7.57
2018-04-02T12:18:41.267Z,8.50
2018-04-02T12:21:21.097Z,8.60
2018-04-02T12:23:56.154Z,7.80
2018-04-02T12:26:32.509Z,8.43
2018-04-02T12:29:06.992Z,8.17
2018-04-02T12:34:32.206Z,8.60
2018-04-02T12:37:13.289Z,7.50
2018-04-02T12:39:55.972Z,7.90
2018-04-02T12:42:30.847Z,8.10
2018-04-02T12:45:09.831Z,6.93
2018-04-02T12:47:44.220Z,7.60
2018-04-02T12:50:17.859Z,7.87
2018-04-02T12:52:51.435Z,7.23
2018-04-02T12:55:26.589Z,7.13
2018-04-02T12:58:01.078Z,8.70
2018-04-02T13:00:36.340Z,7.63
2018-04-02T13:03:12.848Z,8.03
2018-04-02T13:05:47.708Z,8.70
2018-04-02T13:08:23.527Z,7.40
2018-04-02T13:10:57.290Z,7.50
2018-04-02T13:13:38.241Z,9.07
2018-04-02T13:16:17.144Z,8.53
2018-04-02T13:18:53.369Z,7.90
2018-04-02T13:21:27.593Z,8.73
2018-04-02T13:24:02.389Z,8.83
2018-04-02T13:26:44.296Z,8.70
2018-04-02T13:29:20.594Z,9.03
2018-04-02T13:31:58.732Z,9.37
2018-04-02T13:34:34.366Z,9.17
2018-04-02T13:37:15.223Z,9.93
2018-04-02T13:39:49.649Z,9.00
2018-04-02T13:42:25.393Z,10.20
2018-04-02T13:44:59.843Z,8.40
2018-04-02T13:47:35.624Z,8.50
2018-04-02T13:50:09.858Z,8.90
2018-04-02T13:52:46.271Z,8.30
2018-04-02T13:55:20.797Z,8.93
2018-04-02T13:57:55.118Z,8.20
2018-04-02T14:00:28.893Z,9.57
2018-04-02T14:03:04.937Z,8.23
2018-04-02T14:05:40.740Z,7.90
2018-04-02T14:08:15.556Z,8.47
2018-04-02T14:10:50.425Z,8.97
2018-04-02T14:13:26.653Z,8.27
2018-04-02T14:16:06.311Z,9.47
2018-04-02T14:18:42.986Z,8.77
2018-04-02T14:21:18.088Z,8.10
2018-04-02T14:26:45.288Z,8.83
2018-04-02T14:29:24.313Z,8.33
2018-04-02T14:32:12.919Z,9.03
2018-04-02T14:36:38.428Z,9.10
2018-04-02T14:39:17.778Z,7.10
2018-04-02T14:41:55.134Z,7.80
2018-04-02T14:44:49.577Z,7.67
2018-04-02T14:47:32.325Z,7.20
2018-04-02T14:50:09.860Z,8.07
2018-04-02T14:52:47.785Z,7.77
2018-04-02T14:55:37.223Z,7.53
2018-04-02T14:58:13.535Z,7.70
2018-04-02T15:03:53.408Z,8.40
2018-04-02T15:06:31.604Z,8.90
2018-04-02T15:09:07.245Z,8.60
2018-04-02T15:11:44.736Z,9.40
2018-04-02T15:14:19.497Z,7.73
2018-04-02T15:16:54.263Z,7.50
2018-04-02T15:19:37.306Z,7.27
2018-04-02T15:22:13.826Z,7.97
2018-04-02T15:24:50.857Z,9.03
2018-04-02T15:27:31.665Z,9.10
2018-04-02T15:30:20.520Z,7.80
2018-04-02T15:33:08.627Z,8.90
2018-04-02T15:35:48.337Z,8.77
2018-04-02T15:41:35.099Z,8.77
2018-04-02T15:44:22.993Z,7.77
2018-04-02T15:47:03.716Z,7.33
2018-04-02T15:49:43.928Z,8.60
2018-04-02T15:52:30.694Z,8.83
2018-04-02T15:55:21.942Z,7.20
2018-04-02T15:58:00.742Z,7.53
2018-04-02T16:00:37.865Z,7.87
2018-04-02T16:07:47.860Z,7.80
2018-04-02T16:10:24.955Z,7.90
2018-04-02T16:13:01.469Z,6.40
2018-04-02T16:15:37.447Z,7.30
2018-04-02T16:18:18.326Z,7.03
2018-04-02T16:20:56.050Z,7.47
2018-04-02T16:23:39.159Z,6.03
2018-04-02T16:26:19.945Z,5.80
2018-04-02T16:29:05.989Z,5.77
2018-04-02T16:31:45.966Z,5.70
2018-04-02T16:34:26.220Z,6.27
2018-04-02T16:37:18.496Z,5.77
2018-04-02T16:40:09.382Z,5.77
2018-04-02T16:42:59.103Z,6.30
2018-04-02T16:45:40.765Z,6.03
2018-04-02T16:48:24.054Z,5.30
2018-04-02T16:51:12.141Z,5.33
2018-04-02T16:53:55.096Z,4.80
2018-04-02T16:56:39.657Z,6.07
2018-04-02T16:59:23.098Z,5.70
2018-04-02T17:02:03.806Z,4.70
2018-04-02T17:04:44.102Z,4.13
2018-04-02T17:07:26.131Z,3.77
2018-04-02T17:10:25.782Z,4.73
2018-04-02T17:13:08.030Z,4.80
2018-04-02T17:15:54.166Z,4.70
2018-04-02T17:18:34.721Z,4.17
2018-04-02T17:21:20.019Z,5.95
2018-04-02T17:24:04.241Z,3.03
2018-04-02T17:26:45.066Z,3.73
2018-04-02T17:29:29.531Z,5.13
2018-04-02T17:32:11.219Z,3.37
2018-04-02T17:34:52.013Z,3.20
2018-04-02T17:37:33.230Z,4.90
2018-04-02T17:40:13.503Z,2.77
2018-04-02T17:42:53.625Z,3.77
2018-04-02T17:45:34.481Z,4.33
2018-04-02T17:48:14.376Z,3.57
2018-04-02T17:50:54.624Z,2.97
2018-04-02T17:53:34.612Z,2.60
2018-04-02T17:56:15.073Z,4.00
2018-04-02T17:58:55.309Z,2.90
2018-04-02T18:01:35.485Z,4.33
2018-04-02T18:04:16.128Z,3.37
2018-04-02T18:06:56.930Z,2.23
2018-04-02T18:09:37.089Z,2.90
2018-04-02T18:12:17.175Z,2.27
2018-04-02T18:15:01.738Z,3.90
2018-04-02T18:18:00.124Z,2.50
2018-04-02T18:20:41.953Z,3.63
2018-04-02T18:23:31.512Z,2.60
2018-04-02T18:26:12.929Z,4.40
2018-04-02T18:28:53.386Z,2.80
2018-04-02T18:31:38.372Z,3.00
2018-04-02T18:34:18.889Z,3.20
2018-04-02T18:36:59.200Z,2.87
2018-04-02T18:39:39.661Z,2.90
2018-04-02T18:42:20.579Z,2.70
2018-04-02T18:45:00.551Z,4.43
2018-04-02T18:47:41.694Z,3.03
2018-04-02T18:50:21.756Z,2.40
2018-04-02T18:53:02.170Z,3.70
2018-04-02T18:55:43.373Z,2.73
2018-04-02T18:58:24.957Z,2.73
2018-04-02T19:01:05.576Z,2.60
2018-04-02T19:03:46.190Z,3.53
2018-04-02T19:06:26.247Z,3.43
2018-04-02T19:09:07.881Z,3.73
2018-04-02T19:11:48.819Z,3.83
2018-04-02T19:14:29.100Z,3.50
2018-04-02T19:17:10.149Z,3.80
2018-04-02T19:19:52.180Z,5.20
2018-04-02T19:22:38.289Z,3.23
2018-04-02T19:25:19.938Z,4.73
2018-04-02T19:28:00.338Z,3.73
2018-04-02T19:30:42.895Z,5.10
2018-04-02T19:33:23.114Z,3.83
2018-04-02T19:36:03.852Z,3.93
2018-04-02T19:38:44.247Z,5.33
2018-04-02T19:41:32.163Z,5.03
2018-04-02T19:44:13.393Z,5.07
2018-04-02T19:46:54.230Z,3.80
2018-04-02T19:49:34.745Z,3.40
2018-04-02T19:52:16.355Z,3.80
2018-04-02T19:54:57.482Z,4.40
2018-04-02T19:57:38.931Z,4.10
2018-04-02T20:00:21.131Z,3.87
2018-04-02T20:03:01.495Z,4.70
2018-04-02T20:05:41.880Z,4.87
2018-04-02T20:08:22.575Z,5.57
2018-04-02T20:11:03.155Z,5.67
2018-04-02T20:13:44.251Z,3.60
2018-04-02T20:16:18.498Z,4.87
2018-04-02T20:18:53.514Z,4.97
2018-04-02T20:21:28.517Z,4.27
2018-04-02T20:24:03.376Z,4.40
2018-04-02T20:26:38.236Z,5.63
2018-04-02T20:29:13.874Z,4.53
2018-04-02T20:31:48.484Z,5.93
2018-04-02T20:34:23.279Z,4.13
2018-04-02T20:36:58.718Z,5.63
2018-04-02T20:39:35.389Z,4.73
2018-04-02T20:42:09.909Z,4.50
2018-04-02T20:44:44.622Z,4.67
2018-04-02T20:47:18.905Z,4.10
2018-04-02T20:49:53.054Z,5.27
2018-04-02T20:52:29.581Z,5.70
2018-04-02T20:55:05.477Z,4.87
2018-04-02T20:57:40.251Z,5.17
2018-04-02T21:00:14.944Z,5.97
2018-04-02T21:02:51.066Z,5.50
2018-04-02T21:05:26.425Z,6.70
2018-04-02T21:08:01.022Z,5.40
2018-04-02T21:10:35.065Z,6.43
2018-04-02T21:13:09.988Z,7.20
2018-04-02T21:15:44.470Z,6.83
2018-04-02T21:18:18.770Z,6.43
2018-04-02T21:20:53.957Z,6.13
2018-04-02T21:23:28.759Z,5.90
2018-04-02T21:26:03.318Z,5.70
2018-04-02T21:28:38.320Z,5.33
2018-04-02T21:31:13.570Z,4.80
2018-04-02T21:33:48.199Z,4.47
2018-04-02T21:36:23.074Z,6.47
2018-04-02T21:38:57.398Z,5.77
2018-04-02T21:41:32.401Z,5.17
2018-04-02T21:44:07.391Z,5.07
2018-04-02T21:46:42.042Z,3.73
2018-04-02T21:49:16.546Z,4.37
2018-04-02T21:51:51.617Z,3.37
2018-04-02T21:54:26.554Z,3.90
2018-04-02T21:57:03.887Z,3.50
2018-04-02T21:59:39.048Z,3.50
2018-04-02T22:02:14.556Z,3.50
2018-04-02T22:04:49.170Z,3.93
2018-04-02T22:07:24.111Z,3.73
2018-04-02T22:09:59.740Z,4.10
2018-04-02T22:12:42.877Z,4.60
2018-04-02T22:15:23.535Z,3.93
2018-04-02T22:17:58.981Z,5.23
2018-04-02T22:20:37.119Z,3.60
2018-04-02T22:23:16.757Z,3.77
2018-04-02T22:25:51.129Z,3.30
2018-04-02T22:28:25.908Z,3.07
2018-04-02T22:31:04.214Z,3.20
2018-04-02T22:33:41.038Z,2.80
2018-04-02T22:36:16.146Z,2.87
2018-04-02T22:38:50.987Z,3.50
2018-04-02T22:41:25.873Z,3.13
2018-04-02T22:44:02.702Z,3.37
2018-04-02T22:46:37.466Z,2.70
2018-04-02T22:49:12.002Z,3.90
2018-04-02T22:51:46.770Z,2.97
2018-04-02T22:54:22.785Z,3.30
2018-04-02T22:56:57.281Z,3.80
2018-04-02T22:59:31.943Z,3.27
2018-04-02T23:02:08.132Z,3.13
2018-04-02T23:04:43.580Z,3.03
2018-04-02T23:07:20.383Z,3.30
2018-04-02T23:09:56.215Z,3.27
2018-04-02T23:12:31.545Z,4.13
2018-04-02T23:15:07.520Z,3.07
2018-04-02T23:17:42.700Z,3.27
2018-04-02T23:20:17.530Z,3.00
2018-04-02T23:22:55.510Z,2.80
2018-04-02T23:25:30.269Z,3.23
2018-04-02T23:28:05.424Z,3.00
2018-04-02T23:30:40.509Z,3.80
2018-04-02T23:33:15.777Z,3.43
2018-04-02T23:35:50.606Z,2.63
2018-04-02T23:38:26.780Z,2.40
2018-04-02T23:41:01.545Z,2.30
2018-04-02T23:43:37.756Z,2.13
2018-04-02T23:46:12.209Z,2.23
2018-04-02T23:48:47.516Z,3.53
2018-04-02T23:51:22.162Z,3.17
2018-04-02T23:53:56.765Z,2.90
2018-04-02T23:56:32.362Z,2.53
2018-04-02T23:59:07.410Z,2.50
